KMTJ/MTJ METAR and TAF weather

Enter ICAO airport designator
Station Type Date Time Source
KMTJ METAR 2020/09/19 04:53 UTC NOAA

KMTJ 190453Z AUTO 13010KT 10SM CLR 18/M01 A3022 RMK AO2 SLP162 T01831006


Station Type Date Time Source
KMTJ Decoded METAR 2020/09/19 04:53 UTC NOAA

MONTROSE REGIONAL AIRPORT, CO, United States (KMTJ) 38-30N 107-54W 1750M
Sep 19, 2020 - 12:53 AM EDT / 2020.09.19 0453 UTC
Wind: from the SE (130 degrees) at 12 MPH (10 KT):0
Visibility: 10 mile(s):0
Sky conditions: clear
Temperature: 64.9 F (18.3 C)
Dew Point: 30.9 F (-0.6 C)
Relative Humidity: 27%
Pressure (altimeter): 30.22 in. Hg (1023 hPa)
ob: KMTJ 190453Z AUTO 13010KT 10SM CLR 18/M01 A3022 RMK AO2 SLP162 T01831006
cycle: 5

Station Type Date Time Source
KMTJ TAF 2020/09/18 18:33 UTC NOAA

TAF KMTJ 181731Z 1818/1918 33006KT P6SM FEW250
FM182100 29009KT P6SM SCT250
FM190100 19007KT P6SM BKN250
FM190400 15010KT P6SM BKN200

Example: see airport list